createdAt,value
2022-12-23T00:00:27.805Z,95275.69
2022-12-23T00:02:54.690Z,95263.50
2022-12-23T00:05:21.669Z,95276.38
2022-12-23T00:07:48.394Z,95269.31
2022-12-23T00:10:15.229Z,95275.63
2022-12-23T00:13:00.571Z,95279.75
2022-12-23T00:15:27.279Z,95279.75
2022-12-23T00:17:54.047Z,95273.88
2022-12-23T00:20:20.828Z,95278.28
2022-12-23T00:23:05.957Z,95289.47
2022-12-23T00:25:45.503Z,95293.94
2022-12-23T00:28:17.488Z,95306.56
2022-12-23T00:30:48.517Z,95303.63
2022-12-23T00:33:16.892Z,95309.91
2022-12-23T00:35:44.833Z,95300.97
2022-12-23T00:38:12.191Z,95298.03
2022-12-23T00:40:57.180Z,95294.69
2022-12-23T00:43:23.904Z,95295.16
2022-12-23T00:45:50.794Z,95300.69
2022-12-23T00:48:35.942Z,95301.78
2022-12-23T00:51:02.630Z,95301.78
2022-12-23T00:53:30.406Z,95302.19
2022-12-23T00:55:57.237Z,95305.88
2022-12-23T00:58:24.027Z,95311.84
2022-12-23T01:01:12.011Z,95318.53
2022-12-23T01:03:57.683Z,95318.19
2022-12-23T01:06:24.341Z,95321.88
2022-12-23T01:08:51.086Z,95323.38
2022-12-23T01:11:17.743Z,95327.88
2022-12-23T01:13:44.444Z,95332.66
2022-12-23T01:16:16.738Z,95337.91
2022-12-23T01:18:45.247Z,95343.84
2022-12-23T01:21:13.555Z,95351.22
2022-12-23T01:23:40.227Z,95357.84
2022-12-23T01:26:07.819Z,95352.66
2022-12-23T01:28:35.578Z,95356.84
2022-12-23T01:31:03.937Z,95360.94
2022-12-23T01:33:32.498Z,95374.59
2022-12-23T01:36:00.888Z,95379.81
2022-12-23T01:38:27.537Z,95397.97
2022-12-23T01:40:54.561Z,95399.81
2022-12-23T01:43:22.093Z,95403.00
2022-12-23T01:45:49.336Z,95397.88
2022-12-23T01:48:21.081Z,95401.97
2022-12-23T01:50:52.916Z,95408.25
2022-12-23T01:53:22.144Z,95401.91
2022-12-23T01:55:51.735Z,95404.50
2022-12-23T01:58:22.964Z,95411.59
2022-12-23T02:01:08.579Z,95404.16
2022-12-23T02:03:45.248Z,95402.41
2022-12-23T02:06:42.954Z,95412.03
2022-12-23T02:09:19.146Z,95410.91
2022-12-23T02:12:30.607Z,95417.66
2022-12-23T02:15:37.313Z,95430.63
2022-12-23T02:18:19.590Z,95423.22
2022-12-23T02:21:05.800Z,95438.50
2022-12-23T02:23:54.021Z,95428.53
2022-12-23T02:27:04.762Z,95431.47
2022-12-23T02:29:59.050Z,95438.88
2022-12-23T02:32:52.107Z,95443.66
2022-12-23T02:35:36.183Z,95444.50
2022-12-23T02:38:09.389Z,95433.03
2022-12-23T02:40:45.236Z,95436.31
2022-12-23T02:44:06.314Z,95439.31
2022-12-23T02:46:38.427Z,95442.31
2022-12-23T02:49:12.948Z,95444.56
2022-12-23T02:51:44.242Z,95442.34
2022-12-23T02:54:15.997Z,95449.75
2022-12-23T02:56:47.598Z,95450.09
2022-12-23T02:59:22.497Z,95455.66
2022-12-23T03:01:50.789Z,95447.94
2022-12-23T03:04:17.643Z,95454.94
2022-12-23T03:06:48.550Z,95467.22
2022-12-23T03:09:29.009Z,95461.28
2022-12-23T03:12:22.011Z,95467.22
2022-12-23T03:15:26.398Z,95451.63
2022-12-23T03:18:01.895Z,95471.94
2022-12-23T03:20:56.698Z,95467.53
2022-12-23T03:23:29.469Z,95466.84
2022-12-23T03:26:03.863Z,95476.84
2022-12-23T03:28:33.669Z,95480.94
2022-12-23T03:31:02.418Z,95500.19
2022-12-23T03:33:39.675Z,95497.88
2022-12-23T03:36:15.499Z,95513.72
2022-12-23T03:38:45.119Z,95520.59
2022-12-23T03:41:18.454Z,95520.28
2022-12-23T03:43:54.663Z,95507.72
2022-12-23T03:46:44.240Z,95513.72
2022-12-23T03:49:23.885Z,95516.19
2022-12-23T03:52:05.964Z,95547.78
2022-12-23T03:54:53.583Z,95524.28
2022-12-23T03:57:22.839Z,95539.13
2022-12-23T03:59:54.290Z,95546.00
2022-12-23T04:02:37.881Z,95547.22
2022-12-23T04:05:07.713Z,95544.25
2022-12-23T04:07:39.552Z,95550.97
2022-12-23T04:10:07.828Z,95543.56
2022-12-23T04:12:34.641Z,95550.88
2022-12-23T04:15:01.326Z,95551.50
2022-12-23T04:17:29.148Z,95546.44
2022-12-23T04:19:55.944Z,95550.19
2022-12-23T04:22:22.579Z,95552.06
2022-12-23T04:24:49.304Z,95551.34
2022-12-23T04:27:16.599Z,95543.19
2022-12-23T04:29:44.042Z,95546.88
2022-12-23T04:32:11.124Z,95553.88
2022-12-23T04:34:37.783Z,95542.41
2022-12-23T04:37:04.467Z,95543.56
2022-12-23T04:39:31.223Z,95546.53
2022-12-23T04:41:57.862Z,95553.25
2022-12-23T04:44:24.501Z,95548.53
2022-12-23T04:46:51.386Z,95549.28
2022-12-23T04:49:18.195Z,95560.34
2022-12-23T04:51:44.865Z,95571.41
2022-12-23T04:54:11.523Z,95585.13
2022-12-23T04:56:38.234Z,95573.66
2022-12-23T04:59:05.016Z,95574.41
2022-12-23T05:01:31.915Z,95571.72
2022-12-23T05:03:58.894Z,95575.91
2022-12-23T05:06:25.617Z,95577.00
2022-12-23T05:08:52.352Z,95586.53
2022-12-23T05:11:19.095Z,95591.41
2022-12-23T05:13:45.869Z,95606.19
2022-12-23T05:16:12.563Z,95605.44
2022-12-23T05:18:39.315Z,95600.59
2022-12-23T05:21:06.074Z,95601.44
2022-12-23T05:23:32.828Z,95602.44
2022-12-23T05:25:59.579Z,95593.66
2022-12-23T05:28:26.335Z,95597.75
2022-12-23T05:31:00.702Z,95594.75
2022-12-23T05:33:27.685Z,95592.22
2022-12-23T05:35:55.356Z,95600.75
2022-12-23T05:38:22.263Z,95602.94
2022-12-23T05:40:49.302Z,95595.22
2022-12-23T05:43:16.300Z,95599.25
2022-12-23T05:45:43.139Z,95602.94
2022-12-23T05:48:09.861Z,95613.38
2022-12-23T05:50:38.170Z,95599.19
2022-12-23T05:53:05.495Z,95605.44
2022-12-23T05:55:32.515Z,95601.78
2022-12-23T05:57:59.441Z,95604.25
2022-12-23T06:00:26.595Z,95608.72
2022-12-23T06:02:54.375Z,95601.31
2022-12-23T06:05:21.598Z,95598.72
2022-12-23T06:07:48.363Z,95594.28
2022-12-23T06:10:15.083Z,95600.59
2022-12-23T06:12:41.804Z,95600.59
2022-12-23T06:15:09.300Z,95613.84
2022-12-23T06:17:35.997Z,95617.59
2022-12-23T06:20:03.292Z,95622.28
2022-12-23T06:22:30.021Z,95619.69
2022-12-23T06:24:56.927Z,95622.91
2022-12-23T06:27:23.610Z,95628.84
2022-12-23T06:29:50.285Z,95624.75
2022-12-23T06:32:17.084Z,95624.75
2022-12-23T06:34:43.762Z,95671.50
2022-12-23T06:37:10.544Z,95646.72
2022-12-23T06:39:37.190Z,95623.41
2022-12-23T06:42:03.929Z,95623.78
2022-12-23T06:44:30.632Z,95626.53
2022-12-23T06:46:57.322Z,95628.78
2022-12-23T06:49:24.033Z,95621.75
2022-12-23T06:51:50.730Z,95627.59
2022-12-23T06:54:17.572Z,95618.00
2022-12-23T06:56:44.260Z,95631.72
2022-12-23T06:59:10.942Z,95616.88
2022-12-23T07:01:37.719Z,95612.75
2022-12-23T07:04:04.749Z,95617.53
2022-12-23T07:06:31.825Z,95619.81
2022-12-23T07:08:58.567Z,95630.19
2022-12-23T07:11:25.271Z,95629.88
2022-12-23T07:13:52.006Z,95635.50
2022-12-23T07:16:18.819Z,95650.38
2022-12-23T07:18:45.477Z,95652.22
2022-12-23T07:21:21.403Z,95666.88
2022-12-23T07:23:51.431Z,95654.66
2022-12-23T07:26:18.220Z,95663.84
2022-12-23T07:28:47.917Z,95677.25
2022-12-23T07:31:15.320Z,95697.50
2022-12-23T07:33:42.354Z,95713.22
2022-12-23T07:36:09.397Z,95719.34
2022-12-23T07:38:36.099Z,95724.91
2022-12-23T07:41:02.833Z,95732.31
2022-12-23T07:43:30.029Z,95736.81
2022-12-23T07:46:00.290Z,95731.53
2022-12-23T07:48:27.905Z,95726.34
2022-12-23T07:51:03.519Z,95728.56
2022-12-23T07:53:30.774Z,95720.66
2022-12-23T07:55:57.562Z,95722.25
2022-12-23T07:58:24.943Z,95706.88
2022-12-23T08:00:51.892Z,95710.22
2022-12-23T08:03:18.800Z,95710.69
2022-12-23T08:05:45.750Z,95709.16
2022-12-23T08:08:12.720Z,95707.69
2022-12-23T08:10:46.181Z,95710.78
2022-12-23T08:13:14.652Z,95727.50
2022-12-23T08:15:41.361Z,95743.44
2022-12-23T08:18:08.125Z,95749.41
2022-12-23T08:20:34.848Z,95766.66
2022-12-23T08:23:01.645Z,95766.16
2022-12-23T08:25:28.359Z,95772.78
2022-12-23T08:27:55.116Z,95777.53
2022-12-23T08:30:21.891Z,95769.00
2022-12-23T08:32:48.647Z,95778.63
2022-12-23T08:35:15.480Z,95769.44
2022-12-23T08:37:42.190Z,95774.44
2022-12-23T08:40:09.690Z,95790.44
2022-12-23T08:42:36.708Z,95798.53
2022-12-23T08:45:03.668Z,95805.25
2022-12-23T08:47:30.296Z,95798.34
2022-12-23T08:49:56.967Z,95806.06
2022-12-23T08:52:23.655Z,95802.47
2022-12-23T08:54:50.345Z,95802.13
2022-12-23T08:57:17.212Z,95804.09
2022-12-23T08:59:43.925Z,95816.78
2022-12-23T09:02:11.997Z,95831.00
2022-12-23T09:04:39.031Z,95824.72
2022-12-23T09:07:06.183Z,95831.25
2022-12-23T09:09:32.884Z,95837.75
2022-12-23T09:11:59.601Z,95833.31
2022-12-23T09:14:26.339Z,95829.97
2022-12-23T09:16:53.170Z,95834.50
2022-12-23T09:19:19.895Z,95846.72
2022-12-23T09:21:46.725Z,95840.84
2022-12-23T09:24:13.432Z,95837.66
2022-12-23T09:26:40.255Z,95839.56
2022-12-23T09:29:06.991Z,95834.31
2022-12-23T09:31:37.697Z,95830.03
2022-12-23T09:34:05.568Z,95836.72
2022-12-23T09:36:32.305Z,95847.53
2022-12-23T09:38:59.594Z,95841.78
2022-12-23T09:41:53.999Z,95841.84
2022-12-23T09:44:29.599Z,95832.38
2022-12-23T09:47:03.277Z,95822.75
2022-12-23T09:49:30.421Z,95824.84
2022-12-23T09:52:02.302Z,95811.88
2022-12-23T09:54:35.119Z,95791.25
2022-12-23T09:57:23.095Z,95774.38
2022-12-23T10:00:02.065Z,95765.63
2022-12-23T10:02:42.606Z,95754.16
2022-12-23T10:05:33.221Z,95752.22
2022-12-23T10:08:12.668Z,95737.06
2022-12-23T10:10:52.966Z,95734.06
2022-12-23T10:13:26.761Z,95719.59
2022-12-23T10:15:55.370Z,95723.00
2022-12-23T10:18:31.969Z,95714.91
2022-12-23T10:21:45.383Z,95719.72
2022-12-23T10:24:24.134Z,95711.59
2022-12-23T10:27:01.498Z,95704.16
2022-12-23T10:29:33.026Z,95711.19
2022-12-23T10:32:21.992Z,95678.16
2022-12-23T10:35:11.491Z,95675.56
2022-12-23T10:38:09.968Z,95665.19
2022-12-23T10:41:03.876Z,95651.81
2022-12-23T10:44:22.168Z,95630.63
2022-12-23T10:47:07.303Z,95630.97
2022-12-23T10:49:48.921Z,95617.66
2022-12-23T10:52:20.615Z,95622.44
2022-12-23T10:54:48.676Z,95626.88
2022-12-23T10:57:19.099Z,95614.66
2022-12-23T10:59:45.948Z,95612.34
2022-12-23T11:02:12.873Z,95600.03
2022-12-23T11:04:46.242Z,95581.53
2022-12-23T11:07:43.525Z,95564.44
2022-12-23T11:10:07.439Z,95558.97
2022-12-23T11:12:42.572Z,95553.78
2022-12-23T11:15:35.281Z,95567.16
2022-12-23T11:18:13.870Z,95570.09
2022-12-23T11:20:42.713Z,95550.44
2022-12-23T11:23:27.647Z,95544.50
2022-12-23T11:26:09.936Z,95534.94
2022-12-23T11:28:40.175Z,95529.75
2022-12-23T11:31:14.510Z,95524.56
2022-12-23T11:33:51.299Z,95509.00
2022-12-23T11:36:25.757Z,95498.31
2022-12-23T11:39:10.471Z,95485.56
2022-12-23T11:41:44.306Z,95477.78
2022-12-23T11:44:25.945Z,95471.06
2022-12-23T11:46:52.795Z,95465.81
2022-12-23T11:49:26.025Z,95462.47
2022-12-23T11:52:03.268Z,95460.22
2022-12-23T11:54:30.316Z,95446.19
2022-12-23T11:56:58.258Z,95446.25
2022-12-23T11:59:32.849Z,95451.13
2022-12-23T12:02:11.389Z,95450.72
2022-12-23T12:04:39.004Z,95431.81
2022-12-23T12:07:12.107Z,95427.38
2022-12-23T12:09:42.197Z,95429.50
2022-12-23T12:12:20.371Z,95422.41
2022-12-23T12:14:51.446Z,95429.19
2022-12-23T12:17:41.142Z,95420.72
2022-12-23T12:20:11.230Z,95414.41
2022-12-23T12:22:52.856Z,95409.19
2022-12-23T12:25:23.625Z,95383.94
2022-12-23T12:27:58.035Z,95374.59
2022-12-23T12:30:33.214Z,95372.38
2022-12-23T12:33:04.967Z,95361.16
2022-12-23T12:35:43.836Z,95349.78
2022-12-23T12:38:17.502Z,95335.66
2022-12-23T12:40:59.010Z,95339.75
2022-12-23T12:43:31.702Z,95334.13
2022-12-23T12:46:25.547Z,95315.19
2022-12-23T12:49:05.444Z,95317.44
2022-12-23T12:51:37.264Z,95325.69
2022-12-23T12:54:21.142Z,95313.06
2022-12-23T12:56:54.187Z,95307.19
2022-12-23T12:59:42.473Z,95300.09
2022-12-23T13:02:20.265Z,95282.69
2022-12-23T13:05:08.399Z,95313.41
2022-12-23T13:08:02.652Z,95288.25
2022-12-23T13:10:29.269Z,95268.19
2022-12-23T13:13:20.032Z,95264.50
2022-12-23T13:16:08.466Z,95255.56
2022-12-23T13:19:00.700Z,95251.53
2022-12-23T13:21:53.749Z,95260.34
2022-12-23T13:24:50.001Z,95257.41
2022-12-23T13:27:30.473Z,95282.38
2022-12-23T13:30:08.773Z,95286.81
2022-12-23T13:32:50.888Z,95250.78
2022-12-23T13:35:59.750Z,95254.09
2022-12-23T13:39:09.751Z,95199.59
2022-12-23T13:41:41.776Z,95205.19
2022-12-23T13:44:10.859Z,95221.84
2022-12-23T13:46:46.723Z,95192.56
2022-12-23T13:49:57.929Z,95197.06
2022-12-23T13:52:58.568Z,95168.88
2022-12-23T13:55:35.767Z,95181.84
2022-12-23T13:58:13.535Z,95174.09
2022-12-23T14:00:40.328Z,95169.25
2022-12-23T14:03:09.765Z,95177.09
2022-12-23T14:05:41.643Z,95161.13
2022-12-23T14:08:20.463Z,95162.69
2022-12-23T14:11:00.736Z,95150.50
2022-12-23T14:13:31.463Z,95130.16
2022-12-23T14:16:35.694Z,95161.53
2022-12-23T14:19:54.705Z,95168.28
2022-12-23T14:22:40.124Z,95163.09
2022-12-23T14:25:27.997Z,95165.34
2022-12-23T14:28:16.270Z,95155.81
2022-12-23T14:30:47.150Z,95166.59
2022-12-23T14:33:30.372Z,95159.97
2022-12-23T14:36:36.992Z,95158.59
2022-12-23T14:39:22.283Z,95130.19
2022-12-23T14:41:53.728Z,95135.03
2022-12-23T14:44:41.819Z,95125.00
2022-12-23T14:47:35.355Z,95118.03
2022-12-23T14:50:34.049Z,95117.38
2022-12-23T14:53:04.245Z,95112.91
2022-12-23T14:55:31.861Z,95104.06
2022-12-23T14:58:17.206Z,95101.47
2022-12-23T15:00:50.242Z,95091.44
2022-12-23T15:03:19.575Z,95083.63
2022-12-23T15:05:46.596Z,95082.16
2022-12-23T15:08:33.204Z,95083.31
2022-12-23T15:11:00.114Z,95076.28
2022-12-23T15:13:30.432Z,95059.25
2022-12-23T15:16:01.629Z,95064.09
2022-12-23T15:18:29.886Z,95076.34
2022-12-23T15:21:04.405Z,95078.59
2022-12-23T15:23:31.457Z,95087.91
2022-12-23T15:26:00.203Z,95081.97
2022-12-23T15:28:41.315Z,95083.88
2022-12-23T15:31:33.259Z,95088.03
2022-12-23T15:34:13.078Z,95038.03
2022-12-23T15:36:44.346Z,95040.66
2022-12-23T15:39:20.081Z,95027.44
2022-12-23T15:41:48.350Z,95037.16
2022-12-23T15:44:22.564Z,95033.53
2022-12-23T15:46:50.635Z,95030.97
2022-12-23T15:49:19.378Z,95030.22
2022-12-23T15:52:08.055Z,95032.09
2022-12-23T15:54:42.725Z,95037.69
2022-12-23T15:57:18.670Z,95036.94
2022-12-23T15:59:45.677Z,95032.09
2022-12-23T16:02:59.065Z,95031.72
2022-12-23T16:05:11.095Z,95123.94
2022-12-23T16:07:41.046Z,95086.78
2022-12-23T16:10:19.156Z,95118.03
2022-12-23T16:12:49.436Z,95112.81
2022-12-23T16:15:42.780Z,95063.34
2022-12-23T16:18:12.363Z,95041.03
2022-12-23T16:20:43.517Z,95041.00
2022-12-23T16:23:12.660Z,95041.75
2022-12-23T16:25:42.986Z,95053.25
2022-12-23T16:28:23.202Z,95059.97
2022-12-23T16:30:53.717Z,95049.56
2022-12-23T16:33:37.973Z,95055.50
2022-12-23T16:36:14.925Z,95051.41
2022-12-23T16:38:41.857Z,95058.13
2022-12-23T16:41:08.508Z,95058.47
2022-12-23T16:43:35.272Z,95067.03
2022-12-23T16:46:02.171Z,95072.63
2022-12-23T16:48:38.508Z,95082.66
2022-12-23T16:51:20.237Z,95087.53
2022-12-23T16:53:48.744Z,95093.81
2022-12-23T16:56:17.184Z,95093.09
2022-12-23T16:58:44.503Z,95113.19
2022-12-23T17:01:17.889Z,95096.44
2022-12-23T17:03:44.953Z,95093.09
2022-12-23T17:06:16.604Z,95099.03
2022-12-23T17:08:43.338Z,95115.03
2022-12-23T17:11:35.162Z,95120.25
2022-12-23T17:14:05.783Z,95150.38
2022-12-23T17:16:36.107Z,95163.41
2022-12-23T17:19:03.031Z,95150.41
2022-12-23T17:21:36.886Z,95179.41
2022-12-23T17:24:12.813Z,95190.19
2022-12-23T17:26:39.855Z,95190.56
2022-12-23T17:29:06.644Z,95199.50
2022-12-23T17:31:34.555Z,95206.94
2022-12-23T17:34:02.101Z,95222.91
2022-12-23T17:36:29.234Z,95224.78
2022-12-23T17:38:56.197Z,95227.41
2022-12-23T17:41:31.364Z,95229.25
2022-12-23T17:43:58.619Z,95225.16
2022-12-23T17:46:26.389Z,95251.56
2022-12-23T17:48:53.477Z,95258.25
2022-12-23T17:51:22.723Z,95269.38
2022-12-23T17:53:56.833Z,95283.47
2022-12-23T17:56:25.025Z,95299.09
2022-12-23T17:58:51.901Z,95302.44
2022-12-23T18:01:23.211Z,95297.25
2022-12-23T18:03:50.064Z,95300.97
2022-12-23T18:06:19.492Z,95319.88
2022-12-23T18:08:46.490Z,95309.91
2022-12-23T18:11:34.517Z,95338.47
2022-12-23T18:14:02.530Z,95362.28
2022-12-23T18:16:29.418Z,95375.66
2022-12-23T18:18:56.654Z,95384.53
2022-12-23T18:21:28.743Z,95403.81
2022-12-23T18:23:59.795Z,95413.41
2022-12-23T18:26:26.541Z,95423.75
2022-12-23T18:28:54.627Z,95436.69
2022-12-23T18:31:25.754Z,95451.22
2022-12-23T18:33:53.212Z,95459.41
2022-12-23T18:36:32.973Z,95466.72
2022-12-23T18:38:59.859Z,95480.94
2022-12-23T18:41:27.419Z,95500.47
2022-12-23T18:43:54.997Z,95521.28
2022-12-23T18:46:22.177Z,95536.88
2022-12-23T18:48:49.099Z,95546.06
2022-12-23T18:51:21.163Z,95547.56
2022-12-23T18:53:48.960Z,95548.91
2022-12-23T18:56:19.333Z,95549.66
2022-12-23T18:58:46.095Z,95560.50
2022-12-23T19:01:14.791Z,95580.09
2022-12-23T19:03:42.513Z,95579.28
2022-12-23T19:06:11.949Z,95580.03
2022-12-23T19:08:39.620Z,95584.47
2022-12-23T19:11:12.239Z,95591.94
2022-12-23T19:13:38.991Z,95584.13
2022-12-23T19:16:05.992Z,95592.50
2022-12-23T19:18:32.805Z,95607.03
2022-12-23T19:21:04.278Z,95616.44
2022-12-23T19:23:30.982Z,95623.63
2022-12-23T19:25:57.667Z,95620.63
2022-12-23T19:28:24.679Z,95627.34
2022-12-23T19:30:51.799Z,95637.22
2022-12-23T19:33:18.655Z,95624.56
2022-12-23T19:35:45.368Z,95626.22
2022-12-23T19:38:12.552Z,95629.00
2022-12-23T19:40:39.992Z,95639.31
2022-12-23T19:43:07.096Z,95645.53
2022-12-23T19:45:33.789Z,95644.09
2022-12-23T19:48:00.583Z,95632.16
2022-12-23T19:50:27.395Z,95637.28
2022-12-23T19:52:56.479Z,95641.84
2022-12-23T19:55:23.660Z,95651.88
2022-12-23T19:57:50.599Z,95639.97
2022-12-23T20:00:17.510Z,95648.50
2022-12-23T20:02:44.329Z,95643.06
2022-12-23T20:05:11.105Z,95652.41
2022-12-23T20:07:37.917Z,95664.63
2022-12-23T20:10:06.036Z,95663.94
2022-12-23T20:12:33.086Z,95668.41
2022-12-23T20:14:59.940Z,95671.41
2022-12-23T20:17:26.632Z,95683.75
2022-12-23T20:19:54.465Z,95708.78
2022-12-23T20:22:21.162Z,95707.03
2022-12-23T20:24:47.935Z,95714.31
2022-12-23T20:27:16.115Z,95713.78
2022-12-23T20:29:43.311Z,95727.66
2022-12-23T20:32:10.412Z,95727.75
2022-12-23T20:34:39.990Z,95732.81
2022-12-23T20:37:07.675Z,95756.75
2022-12-23T20:39:34.708Z,95758.16
2022-12-23T20:42:01.494Z,95727.38
2022-12-23T20:44:37.086Z,95712.41
2022-12-23T20:47:06.243Z,95702.59
2022-12-23T20:49:33.809Z,95683.81
2022-12-23T20:52:00.839Z,95686.84
2022-12-23T20:54:32.556Z,95711.19
2022-12-23T20:57:03.058Z,95721.38
2022-12-23T20:59:29.832Z,95716.81
2022-12-23T21:01:59.366Z,95753.16
2022-12-23T21:04:26.643Z,95786.91
2022-12-23T21:06:53.441Z,95808.25
2022-12-23T21:09:20.264Z,95826.00
2022-12-23T21:11:47.877Z,95837.00
2022-12-23T21:14:15.790Z,95845.88
2022-12-23T21:16:43.296Z,95859.63
2022-12-23T21:19:15.888Z,95870.44
2022-12-23T21:21:42.861Z,95905.59
2022-12-23T21:24:10.092Z,95913.47
2022-12-23T21:26:36.937Z,95953.41
2022-12-23T21:29:05.632Z,95965.28
2022-12-23T21:31:35.399Z,95988.69
2022-12-23T21:34:02.593Z,95990.31
2022-12-23T21:36:32.531Z,96002.59
2022-12-23T21:38:59.658Z,95989.13
2022-12-23T21:41:31.251Z,96013.34
2022-12-23T21:43:59.725Z,96027.50
2022-12-23T21:46:28.021Z,96032.88
2022-12-23T21:48:56.290Z,96059.44
2022-12-23T21:51:26.393Z,96046.53
2022-12-23T21:53:55.537Z,96072.34
2022-12-23T21:56:27.684Z,96071.03
2022-12-23T21:58:59.530Z,96089.69
2022-12-23T22:01:26.910Z,96087.03
2022-12-23T22:03:54.690Z,96073.50
2022-12-23T22:06:29.843Z,96073.28
2022-12-23T22:08:57.402Z,96067.38
2022-12-23T22:11:26.878Z,96061.56
2022-12-23T22:13:55.974Z,96064.47
2022-12-23T22:16:24.617Z,96065.06
2022-12-23T22:18:52.338Z,96086.34
2022-12-23T22:21:21.475Z,96078.97
2022-12-23T22:23:49.447Z,96108.47
2022-12-23T22:26:25.363Z,96116.59
2022-12-23T22:28:55.000Z,96143.34
2022-12-23T22:31:29.803Z,96167.59
2022-12-23T22:33:56.689Z,96188.72
2022-12-23T22:36:23.737Z,96239.94
2022-12-23T22:38:58.177Z,96245.00
2022-12-23T22:41:28.028Z,96247.16
2022-12-23T22:43:55.331Z,96336.94
2022-12-23T22:46:22.823Z,96346.84
2022-12-23T22:48:50.499Z,96399.78
2022-12-23T22:51:23.801Z,96410.00
2022-12-23T22:53:50.807Z,96437.28
2022-12-23T22:56:19.005Z,96447.91
2022-12-23T22:58:45.744Z,96447.91
2022-12-23T23:01:33.083Z,96481.28
2022-12-23T23:04:01.692Z,96473.03
2022-12-23T23:06:34.029Z,96467.63
2022-12-23T23:09:01.388Z,96497.69
2022-12-23T23:11:28.847Z,96492.06
2022-12-23T23:13:55.906Z,96471.38
2022-12-23T23:16:24.234Z,96471.63
2022-12-23T23:18:52.155Z,96454.44
2022-12-23T23:21:19.214Z,96434.59
2022-12-23T23:23:46.155Z,96431.25
2022-12-23T23:26:13.555Z,96413.09
2022-12-23T23:28:41.203Z,96444.69
2022-12-23T23:31:40.679Z,96457.91
2022-12-23T23:33:57.938Z,96458.00
2022-12-23T23:36:25.158Z,96486.72
2022-12-23T23:38:52.068Z,96454.44
2022-12-23T23:41:23.342Z,96447.53
2022-12-23T23:43:51.082Z,96443.72
2022-12-23T23:46:18.086Z,96457.28
2022-12-23T23:48:44.879Z,96423.06
2022-12-23T23:51:12.765Z,96415.91
2022-12-23T23:53:40.340Z,96422.50
2022-12-23T23:56:08.294Z,96435.59
2022-12-23T23:58:36.306Z,96429.22
